createdAt,value
2018-12-03T00:01:58.770Z,77.09
2018-12-03T00:04:28.774Z,77.08
2018-12-03T00:06:59.020Z,77.14
2018-12-03T00:09:29.053Z,77.50
2018-12-03T00:11:59.056Z,77.42
2018-12-03T00:14:28.942Z,77.31
2018-12-03T00:16:58.871Z,77.29
2018-12-03T00:19:28.772Z,76.80
2018-12-03T00:21:58.819Z,76.07
2018-12-03T00:24:28.851Z,75.78
2018-12-03T00:26:58.827Z,76.03
2018-12-03T00:29:28.646Z,75.87
2018-12-03T00:31:58.572Z,76.27
2018-12-03T00:34:28.437Z,75.99
2018-12-03T00:36:58.457Z,75.40
2018-12-03T00:39:28.272Z,75.64
2018-12-03T00:41:58.206Z,75.64
2018-12-03T00:44:28.089Z,75.81
2018-12-03T00:46:58.080Z,75.68
2018-12-03T00:49:28.276Z,75.82
2018-12-03T00:51:58.156Z,75.58
2018-12-03T00:54:28.108Z,75.32
2018-12-03T00:56:58.041Z,75.61
2018-12-03T00:59:27.975Z,75.49
2018-12-03T01:01:57.956Z,75.73
2018-12-03T01:04:27.927Z,75.42
2018-12-03T01:06:58.176Z,75.38
2018-12-03T01:09:28.026Z,75.33
2018-12-03T01:11:58.091Z,75.87
2018-12-03T01:14:28.325Z,75.94
2018-12-03T01:16:58.224Z,76.23
2018-12-03T01:22:18.943Z,76.44
2018-12-03T01:24:48.940Z,76.79
2018-12-03T01:27:18.869Z,76.65
2018-12-03T01:29:48.827Z,76.72
2018-12-03T01:32:19.245Z,76.79
2018-12-03T01:34:49.134Z,76.31
2018-12-03T01:37:19.079Z,76.66
2018-12-03T01:39:49.018Z,76.48
2018-12-03T01:42:18.921Z,77.06
2018-12-03T01:44:48.856Z,76.97
2018-12-03T01:47:18.821Z,77.50
2018-12-03T01:49:48.773Z,77.69
2018-12-03T01:52:18.709Z,78.13
2018-12-03T01:54:48.551Z,78.06
2018-12-03T01:57:18.450Z,78.24
2018-12-03T01:59:48.337Z,78.08
2018-12-03T02:02:18.231Z,77.82
2018-12-03T02:04:48.407Z,77.65
2018-12-03T02:07:18.316Z,77.90
2018-12-03T02:09:48.225Z,78.34
2018-12-03T02:12:18.564Z,78.35
2018-12-03T02:14:48.415Z,78.15
2018-12-03T02:17:18.384Z,78.33
2018-12-03T02:19:48.252Z,78.06
2018-12-03T02:22:18.220Z,78.21
2018-12-03T02:24:48.439Z,78.48
2018-12-03T02:27:18.420Z,78.40
2018-12-03T02:29:48.410Z,78.29
2018-12-03T02:32:18.327Z,78.69
2018-12-03T02:34:48.198Z,78.38
2018-12-03T02:37:18.162Z,78.43
2018-12-03T02:39:49.577Z,77.70
2018-12-03T02:42:19.510Z,77.27
2018-12-03T02:44:49.451Z,76.95
2018-12-03T02:47:19.333Z,77.08
2018-12-03T02:49:49.332Z,77.17
2018-12-03T02:52:19.197Z,77.33
2018-12-03T02:54:49.205Z,77.96
2018-12-03T02:57:19.584Z,78.63
2018-12-03T02:59:49.556Z,78.28
2018-12-03T03:02:19.523Z,78.14
2018-12-03T03:04:49.373Z,77.65
2018-12-03T03:07:19.315Z,77.27
2018-12-03T03:09:50.657Z,77.17
2018-12-03T03:12:20.663Z,76.97
2018-12-03T03:14:50.591Z,77.56
2018-12-03T03:17:20.698Z,77.42
2018-12-03T03:19:50.563Z,77.80
2018-12-03T03:22:20.478Z,77.82
2018-12-03T03:24:50.325Z,78.25
2018-12-03T03:27:20.272Z,78.02
2018-12-03T03:29:50.260Z,78.29
2018-12-03T03:32:20.246Z,78.12
2018-12-03T03:34:50.636Z,78.26
2018-12-03T03:37:20.503Z,78.24
2018-12-03T03:39:50.404Z,78.26
2018-12-03T03:42:20.336Z,78.48
2018-12-03T03:44:50.308Z,79.01
2018-12-03T03:47:21.794Z,78.66
2018-12-03T03:49:51.743Z,78.98
2018-12-03T03:52:21.584Z,79.41
2018-12-03T03:54:54.313Z,79.68
2018-12-03T03:57:24.210Z,79.66
2018-12-03T03:59:55.060Z,79.75
2018-12-03T04:02:24.942Z,79.93
2018-12-03T04:04:54.980Z,79.80
2018-12-03T04:07:24.902Z,79.89
2018-12-03T04:09:56.905Z,79.91
2018-12-03T04:12:27.068Z,79.90
2018-12-03T04:14:57.842Z,80.02
2018-12-03T04:17:27.786Z,79.91
2018-12-03T04:19:57.809Z,79.86
2018-12-03T04:22:27.687Z,80.07
2018-12-03T04:24:57.675Z,80.37
2018-12-03T04:27:27.774Z,80.17
2018-12-03T04:29:58.928Z,80.31
2018-12-03T04:32:28.943Z,80.50
2018-12-03T04:34:59.070Z,80.08
2018-12-03T04:37:29.080Z,80.29
2018-12-03T04:39:58.972Z,80.44
2018-12-03T04:42:29.120Z,80.60
2018-12-03T04:44:59.419Z,80.29
2018-12-03T04:47:29.502Z,80.54
2018-12-03T04:49:59.469Z,80.31
2018-12-03T04:52:29.650Z,80.17
2018-12-03T04:54:59.892Z,80.66
2018-12-03T04:57:30.008Z,80.51
2018-12-03T05:00:00.009Z,80.13
2018-12-03T05:02:30.093Z,80.27
2018-12-03T05:05:00.228Z,79.87
2018-12-03T05:07:30.264Z,80.04
2018-12-03T05:12:53.189Z,79.77
2018-12-03T05:15:23.675Z,80.03
2018-12-03T05:17:54.471Z,80.10
2018-12-03T05:20:26.306Z,80.02
2018-12-03T05:22:56.291Z,79.95
2018-12-03T05:25:26.224Z,80.14
2018-12-03T05:27:59.466Z,80.18
2018-12-03T05:30:29.520Z,79.83
2018-12-03T05:33:00.306Z,79.79
2018-12-03T05:35:31.079Z,80.04
2018-12-03T05:38:01.322Z,80.38
2018-12-03T05:40:32.355Z,80.04
2018-12-03T05:43:02.745Z,80.54
2018-12-03T05:45:32.751Z,80.30
2018-12-03T05:48:03.000Z,80.16
2018-12-03T05:50:33.256Z,80.40
2018-12-03T05:53:05.137Z,80.75
2018-12-03T05:55:35.666Z,80.55
2018-12-03T05:58:06.259Z,80.52
2018-12-03T06:00:36.204Z,80.02
2018-12-03T06:03:07.167Z,80.31
2018-12-03T06:05:37.878Z,80.59
2018-12-03T06:08:08.568Z,80.33
2018-12-03T06:10:39.404Z,79.97
2018-12-03T06:13:09.396Z,80.04
2018-12-03T06:15:39.598Z,79.90
2018-12-03T06:18:09.488Z,80.06
2018-12-03T06:20:39.460Z,80.16
2018-12-03T06:23:09.395Z,79.98
2018-12-03T06:25:39.498Z,79.96
2018-12-03T06:28:09.438Z,79.71
2018-12-03T06:30:39.405Z,79.36
2018-12-03T06:33:09.529Z,79.02
2018-12-03T06:35:40.170Z,78.79
2018-12-03T06:38:15.176Z,78.58
2018-12-03T06:40:40.131Z,78.38
2018-12-03T06:43:10.124Z,78.12
2018-12-03T06:45:40.121Z,77.83
2018-12-03T06:48:12.443Z,77.54
2018-12-03T06:50:42.469Z,77.82
2018-12-03T06:53:12.493Z,77.78
2018-12-03T06:55:42.347Z,77.40
2018-12-03T06:58:12.510Z,77.53
2018-12-03T07:00:43.372Z,77.55
2018-12-03T07:03:13.376Z,77.50
2018-12-03T07:05:44.055Z,77.92
2018-12-03T07:08:14.415Z,77.35
2018-12-03T07:10:44.320Z,77.62
2018-12-03T07:13:16.880Z,77.14
2018-12-03T07:15:47.816Z,76.82
2018-12-03T07:18:17.677Z,77.18
2018-12-03T07:20:48.363Z,76.90
2018-12-03T07:23:18.661Z,76.98
2018-12-03T07:25:48.594Z,76.53
2018-12-03T07:28:18.444Z,76.99
2018-12-03T07:30:48.338Z,76.69
2018-12-03T07:33:18.251Z,76.45
2018-12-03T07:35:49.575Z,76.91
2018-12-03T07:38:19.640Z,76.66
2018-12-03T07:40:51.139Z,75.99
2018-12-03T07:43:21.052Z,75.94
2018-12-03T07:45:51.014Z,75.85
2018-12-03T07:48:21.098Z,75.83
2018-12-03T07:50:51.045Z,75.10
2018-12-03T07:53:21.780Z,75.17
2018-12-03T07:55:51.972Z,75.15
2018-12-03T07:58:23.062Z,74.94
2018-12-03T08:00:55.275Z,74.46
2018-12-03T08:03:25.186Z,74.23
2018-12-03T08:05:55.191Z,73.89
2018-12-03T08:08:25.176Z,74.19
2018-12-03T08:10:57.127Z,73.61
2018-12-03T08:13:26.998Z,73.89
2018-12-03T08:15:56.940Z,73.49
2018-12-03T08:19:08.537Z,73.25
2018-12-03T08:21:41.399Z,73.33
2018-12-03T08:24:15.893Z,73.41
2018-12-03T08:26:49.653Z,73.23
2018-12-03T08:29:22.548Z,73.05
2018-12-03T08:31:55.446Z,73.03
2018-12-03T08:34:28.816Z,72.96
2018-12-03T08:37:04.983Z,72.87
2018-12-03T08:39:40.927Z,73.02
2018-12-03T08:42:14.303Z,72.95
2018-12-03T08:44:47.636Z,73.01
2018-12-03T08:47:20.807Z,72.90
2018-12-03T08:49:54.090Z,73.58
2018-12-03T08:52:27.665Z,73.25
2018-12-03T08:55:00.814Z,73.09
2018-12-03T08:57:33.672Z,73.51
2018-12-03T09:00:12.705Z,73.45
2018-12-03T09:03:06.545Z,73.21
2018-12-03T09:05:41.817Z,72.84
2018-12-03T09:08:14.851Z,73.00
2018-12-03T09:10:49.360Z,72.46
2018-12-03T09:16:19.354Z,71.08
2018-12-03T09:18:54.578Z,70.71
2018-12-03T09:21:27.846Z,70.91
2018-12-03T09:24:01.612Z,69.85
2018-12-03T09:26:38.257Z,69.95
2018-12-03T09:29:11.402Z,67.01
2018-12-03T09:31:45.516Z,67.31
2018-12-03T09:34:18.996Z,67.19
2018-12-03T09:36:52.280Z,67.74
2018-12-03T09:39:25.735Z,67.49
2018-12-03T09:41:58.892Z,67.84
2018-12-03T09:44:33.159Z,67.24
2018-12-03T09:47:07.155Z,66.00
2018-12-03T09:49:41.297Z,65.42
2018-12-03T09:52:15.972Z,65.31
2018-12-03T09:54:48.602Z,65.58
2018-12-03T09:57:23.720Z,64.88
2018-12-03T09:59:58.356Z,65.38
2018-12-03T10:02:37.116Z,65.56
2018-12-03T10:05:14.010Z,65.61
2018-12-03T10:07:53.068Z,64.88
2018-12-03T10:10:32.306Z,63.73
2018-12-03T10:13:14.770Z,61.20
2018-12-03T10:15:54.295Z,61.23
2018-12-03T10:18:29.500Z,60.29
2018-12-03T10:21:05.881Z,59.23
2018-12-03T10:23:40.228Z,58.66
2018-12-03T10:26:15.835Z,58.29
2018-12-03T10:28:49.409Z,57.07
2018-12-03T10:31:23.421Z,55.90
2018-12-03T10:33:56.335Z,56.06
2018-12-03T10:36:29.725Z,54.56
2018-12-03T10:39:02.322Z,54.77
2018-12-03T10:41:37.546Z,54.86
2018-12-03T10:44:10.720Z,56.01
2018-12-03T10:46:48.794Z,56.82
2018-12-03T10:49:22.054Z,57.35
2018-12-03T10:51:58.377Z,56.32
2018-12-03T10:54:38.242Z,55.46
2018-12-03T10:57:13.167Z,56.03
2018-12-03T10:59:52.696Z,55.66
2018-12-03T11:02:37.514Z,55.76
2018-12-03T11:05:16.079Z,56.17
2018-12-03T11:07:50.234Z,56.23
2018-12-03T11:10:23.839Z,56.91
2018-12-03T11:12:57.109Z,55.86
2018-12-03T11:15:30.267Z,57.68
2018-12-03T11:18:04.626Z,58.61
2018-12-03T11:20:37.745Z,58.79
2018-12-03T11:23:11.258Z,59.26
2018-12-03T11:25:45.309Z,59.89
2018-12-03T11:28:20.531Z,60.01
2018-12-03T11:30:55.907Z,59.83
2018-12-03T11:33:30.138Z,59.64
2018-12-03T11:36:03.639Z,58.99
2018-12-03T11:38:44.736Z,59.14
2018-12-03T11:41:18.338Z,58.49
2018-12-03T11:43:52.641Z,58.42
2018-12-03T11:46:26.383Z,58.89
2018-12-03T11:49:01.630Z,59.31
2018-12-03T11:51:35.644Z,59.88
2018-12-03T11:54:08.346Z,59.64
2018-12-03T11:56:41.529Z,60.15
2018-12-03T11:59:15.052Z,59.90
2018-12-03T12:01:48.212Z,59.86
2018-12-03T12:04:21.772Z,60.39
2018-12-03T12:06:54.978Z,60.19
2018-12-03T12:09:28.465Z,59.72
2018-12-03T12:12:01.526Z,59.60
2018-12-03T12:14:34.530Z,59.03
2018-12-03T12:17:08.377Z,60.28
2018-12-03T12:19:41.808Z,61.76
2018-12-03T12:22:15.060Z,66.03
2018-12-03T12:24:48.474Z,71.05
2018-12-03T12:27:21.699Z,73.31
2018-12-03T12:29:55.856Z,75.60
2018-12-03T12:32:29.539Z,75.14
2018-12-03T12:35:02.620Z,73.85
2018-12-03T12:37:35.890Z,73.93
2018-12-03T12:40:11.227Z,73.78
2018-12-03T12:42:45.841Z,74.08
2018-12-03T12:45:21.898Z,72.91
2018-12-03T12:47:54.958Z,73.51
2018-12-03T12:50:28.543Z,72.73
2018-12-03T12:53:02.165Z,72.77
2018-12-03T12:55:37.482Z,72.57
2018-12-03T12:58:11.255Z,72.65
2018-12-03T13:00:44.916Z,71.63
2018-12-03T13:03:18.372Z,72.06
2018-12-03T13:05:51.613Z,70.58
2018-12-03T13:08:29.259Z,70.21
2018-12-03T13:11:02.603Z,69.84
2018-12-03T13:13:35.758Z,69.34
2018-12-03T13:16:08.620Z,68.21
2018-12-03T13:18:41.680Z,67.54
2018-12-03T13:21:17.005Z,67.42
2018-12-03T13:23:50.254Z,67.90
2018-12-03T13:26:23.376Z,68.27
2018-12-03T13:31:25.617Z,67.85
2018-12-03T13:34:01.396Z,67.78
2018-12-03T13:36:34.623Z,67.97
2018-12-03T13:39:10.519Z,67.85
2018-12-03T13:41:44.046Z,67.01
2018-12-03T13:44:19.627Z,66.02
2018-12-03T13:46:52.394Z,65.91
2018-12-03T13:49:27.624Z,66.26
2018-12-03T13:52:01.084Z,66.18
2018-12-03T13:54:34.639Z,66.12
2018-12-03T13:57:09.902Z,65.95
2018-12-03T13:59:43.251Z,65.68
2018-12-03T14:02:16.634Z,65.67
2018-12-03T14:04:49.616Z,66.28
2018-12-03T14:07:28.885Z,66.90
2018-12-03T14:11:13.730Z,67.44
2018-12-03T14:15:07.476Z,68.03
2018-12-03T14:17:45.873Z,68.51
2018-12-03T14:20:20.551Z,68.41
2018-12-03T14:23:03.060Z,68.77
2018-12-03T14:25:37.236Z,69.34
2018-12-03T14:28:09.379Z,69.00
2018-12-03T14:30:43.340Z,69.36
2018-12-03T14:33:18.328Z,69.16
2018-12-03T14:35:51.548Z,69.11
2018-12-03T14:38:24.389Z,68.94
2018-12-03T14:40:57.815Z,69.43
2018-12-03T14:43:31.572Z,69.16
2018-12-03T14:46:04.310Z,70.07
2018-12-03T14:48:38.197Z,70.07
2018-12-03T14:51:11.759Z,70.33
2018-12-03T14:53:44.991Z,70.16
2018-12-03T14:56:17.728Z,70.34
2018-12-03T14:58:50.878Z,70.01
2018-12-03T15:01:24.643Z,70.16
2018-12-03T15:03:58.899Z,70.22
2018-12-03T15:06:31.907Z,70.53
2018-12-03T15:09:07.520Z,70.78
2018-12-03T15:11:41.121Z,70.37
2018-12-03T15:14:14.366Z,70.66
2018-12-03T15:16:47.481Z,70.55
2018-12-03T15:19:20.704Z,70.41
2018-12-03T15:21:53.564Z,70.92
2018-12-03T15:24:27.128Z,70.45
2018-12-03T15:26:59.977Z,70.85
2018-12-03T15:29:33.304Z,70.76
2018-12-03T15:32:06.334Z,71.00
2018-12-03T15:34:37.706Z,71.15
2018-12-03T15:37:11.070Z,71.40
2018-12-03T15:39:44.624Z,71.62
2018-12-03T15:42:17.904Z,71.77
2018-12-03T15:44:51.188Z,72.11
2018-12-03T15:47:25.519Z,72.63
2018-12-03T15:49:58.970Z,73.14
2018-12-03T15:52:35.074Z,73.30
2018-12-03T15:55:09.493Z,73.65
2018-12-03T15:57:44.394Z,74.16
2018-12-03T16:00:17.446Z,74.34
2018-12-03T16:02:50.835Z,74.36
2018-12-03T16:05:26.068Z,74.92
2018-12-03T16:08:00.164Z,74.90
2018-12-03T16:10:33.322Z,75.46
2018-12-03T16:13:07.075Z,75.67
2018-12-03T16:15:40.378Z,76.03
2018-12-03T16:18:13.602Z,76.41
2018-12-03T16:20:47.003Z,76.43
2018-12-03T16:23:25.298Z,76.57
2018-12-03T16:25:58.259Z,76.75
2018-12-03T16:28:31.854Z,76.61
2018-12-03T16:31:05.026Z,77.55
2018-12-03T16:33:38.607Z,76.98
2018-12-03T16:36:12.589Z,76.95
2018-12-03T16:38:46.189Z,76.98
2018-12-03T16:44:47.558Z,77.58
2018-12-03T16:47:22.990Z,77.56
2018-12-03T16:49:58.232Z,77.71
2018-12-03T16:52:31.289Z,77.83
2018-12-03T16:55:06.407Z,77.91
2018-12-03T16:57:39.488Z,77.77
2018-12-03T17:00:14.560Z,77.81
2018-12-03T17:02:47.492Z,77.52
2018-12-03T17:05:20.816Z,77.07
2018-12-03T17:07:54.138Z,76.70
2018-12-03T17:10:27.009Z,76.63
2018-12-03T17:13:00.913Z,76.27
2018-12-03T17:15:36.625Z,76.12
2018-12-03T17:18:10.168Z,75.76
2018-12-03T17:20:56.552Z,75.46
2018-12-03T17:24:00.590Z,75.30
2018-12-03T17:26:36.061Z,75.41
2018-12-03T17:29:11.227Z,75.31
2018-12-03T17:31:44.741Z,75.28
2018-12-03T17:34:17.383Z,75.48
2018-12-03T17:36:50.668Z,74.67
2018-12-03T17:39:23.907Z,74.91
2018-12-03T17:41:57.294Z,74.67
2018-12-03T17:44:33.082Z,74.56
2018-12-03T17:47:06.583Z,74.60
2018-12-03T17:49:40.098Z,74.64
2018-12-03T17:52:14.617Z,74.30
2018-12-03T17:54:48.200Z,73.81
2018-12-03T17:57:21.551Z,74.09
2018-12-03T17:59:55.459Z,74.28
2018-12-03T18:02:29.062Z,73.69
2018-12-03T18:05:02.150Z,73.75
2018-12-03T18:07:35.494Z,73.65
2018-12-03T18:10:10.989Z,73.87
2018-12-03T18:12:44.717Z,73.86
2018-12-03T18:15:17.391Z,73.80
2018-12-03T18:17:50.744Z,73.70
2018-12-03T18:20:23.812Z,73.89
2018-12-03T18:22:55.432Z,73.41
2018-12-03T18:25:28.354Z,73.26
2018-12-03T18:28:02.125Z,73.73
2018-12-03T18:30:35.878Z,72.96
2018-12-03T18:33:11.109Z,72.83
2018-12-03T18:35:44.511Z,73.66
2018-12-03T18:38:18.074Z,73.78
2018-12-03T18:40:51.307Z,74.27
2018-12-03T18:43:24.158Z,74.36
2018-12-03T18:45:57.316Z,74.71
2018-12-03T18:48:30.650Z,75.08
2018-12-03T18:51:05.772Z,75.08
2018-12-03T18:53:39.035Z,75.44
2018-12-03T18:56:14.190Z,75.60
2018-12-03T18:58:52.179Z,75.41
2018-12-03T19:01:25.432Z,74.95
2018-12-03T19:03:58.780Z,74.82
2018-12-03T19:06:32.656Z,74.91
2018-12-03T19:09:08.542Z,75.01
2018-12-03T19:11:43.589Z,75.02
2018-12-03T19:14:16.369Z,75.30
2018-12-03T19:16:49.598Z,75.32
2018-12-03T19:19:24.920Z,75.56
2018-12-03T19:21:58.294Z,75.36
2018-12-03T19:24:31.742Z,75.92
2018-12-03T19:27:04.970Z,75.59
2018-12-03T19:29:44.732Z,75.52
2018-12-03T19:32:17.399Z,75.67
2018-12-03T19:34:50.601Z,75.13
2018-12-03T19:37:23.849Z,75.86
2018-12-03T19:39:57.058Z,75.76
2018-12-03T19:42:30.681Z,75.73
2018-12-03T19:45:07.226Z,76.26
2018-12-03T19:50:14.815Z,75.31
2018-12-03T19:52:51.674Z,74.99
2018-12-03T19:55:24.782Z,75.22
2018-12-03T19:58:22.372Z,75.22
2018-12-03T20:00:55.190Z,74.99
2018-12-03T20:03:29.023Z,75.31
2018-12-03T20:06:06.131Z,75.50
2018-12-03T20:08:43.293Z,75.78
2018-12-03T20:11:16.197Z,75.81
2018-12-03T20:13:49.543Z,75.85
2018-12-03T20:16:22.800Z,76.00
2018-12-03T20:18:57.922Z,75.89
2018-12-03T20:21:30.872Z,76.36
2018-12-03T20:24:07.992Z,76.73
2018-12-03T20:26:50.159Z,76.74
2018-12-03T20:30:04.349Z,76.52
2018-12-03T20:32:48.320Z,76.92
2018-12-03T20:35:28.521Z,76.64
2018-12-03T20:38:06.880Z,76.62
2018-12-03T20:40:48.586Z,76.54
2018-12-03T20:43:24.926Z,76.34
2018-12-03T20:46:08.647Z,76.31
2018-12-03T20:49:07.759Z,75.79
2018-12-03T20:51:43.130Z,75.64
2018-12-03T20:54:16.045Z,75.69
2018-12-03T20:56:49.073Z,75.74
2018-12-03T20:59:23.458Z,75.55
2018-12-03T21:01:58.610Z,75.44
2018-12-03T21:04:33.953Z,75.12
2018-12-03T21:07:06.081Z,74.72
2018-12-03T21:09:38.954Z,74.70
2018-12-03T21:12:12.138Z,74.72
2018-12-03T21:14:47.476Z,74.22
2018-12-03T21:17:22.012Z,74.14
2018-12-03T21:20:00.220Z,74.30
2018-12-03T21:22:33.091Z,74.06
2018-12-03T21:25:14.524Z,74.13
2018-12-03T21:27:47.214Z,74.04
2018-12-03T21:30:20.414Z,74.20
2018-12-03T21:32:53.668Z,73.48
2018-12-03T21:35:26.898Z,73.24
2018-12-03T21:38:00.449Z,73.54
2018-12-03T21:40:36.284Z,73.38
2018-12-03T21:43:09.268Z,73.27
2018-12-03T21:45:44.043Z,73.04
2018-12-03T21:48:15.631Z,73.02
2018-12-03T21:50:48.672Z,73.24
2018-12-03T21:53:25.189Z,73.20
2018-12-03T21:55:58.115Z,73.10
2018-12-03T21:58:31.549Z,73.51
2018-12-03T22:01:07.387Z,73.40
2018-12-03T22:03:43.022Z,73.23
2018-12-03T22:06:16.742Z,73.21
2018-12-03T22:08:51.939Z,73.27
2018-12-03T22:11:25.375Z,73.00
2018-12-03T22:14:02.091Z,72.77
2018-12-03T22:16:34.919Z,72.60
2018-12-03T22:19:08.418Z,72.67
2018-12-03T22:21:43.432Z,73.04
2018-12-03T22:24:16.946Z,73.06
2018-12-03T22:26:50.010Z,73.14
2018-12-03T22:29:23.177Z,72.63
2018-12-03T22:31:57.483Z,72.93
2018-12-03T22:34:30.685Z,73.25
2018-12-03T22:37:04.206Z,73.40
2018-12-03T22:39:37.090Z,73.39
2018-12-03T22:42:12.327Z,73.34
2018-12-03T22:44:47.394Z,73.22
2018-12-03T22:47:22.111Z,73.34
2018-12-03T22:49:55.093Z,73.43
2018-12-03T22:52:30.314Z,73.52
2018-12-03T22:55:03.920Z,73.36
2018-12-03T22:57:37.159Z,73.04
2018-12-03T23:00:20.093Z,73.17
2018-12-03T23:02:53.655Z,73.35
2018-12-03T23:05:27.945Z,73.01
2018-12-03T23:08:01.317Z,73.24
2018-12-03T23:10:34.498Z,73.03
2018-12-03T23:13:08.035Z,72.94
2018-12-03T23:15:41.073Z,73.16
2018-12-03T23:18:14.787Z,73.04
2018-12-03T23:20:47.802Z,73.29
2018-12-03T23:23:23.138Z,72.90
2018-12-03T23:25:58.832Z,73.19
2018-12-03T23:28:32.542Z,73.31
2018-12-03T23:31:05.827Z,73.46
2018-12-03T23:33:38.927Z,73.33
2018-12-03T23:36:13.142Z,72.97
2018-12-03T23:38:46.403Z,72.98
2018-12-03T23:41:19.498Z,73.07
2018-12-03T23:43:52.385Z,73.30
2018-12-03T23:46:26.148Z,73.12
2018-12-03T23:48:58.784Z,72.85
2018-12-03T23:51:36.191Z,72.72
2018-12-03T23:54:07.625Z,72.70
2018-12-03T23:56:40.814Z,72.58
2018-12-03T23:59:14.106Z,72.28
